Time;durP1;ratioP1;P1;durP2;ratioP2;P2;SDS_P1;SDS_P2;PMS_P1;PMS_P2;Temp;Humidity;BMP_temperature;BMP_pressure;BME280_temperature;BME280_humidity;BME280_pressure;Samples;Min_cycle;Max_cycle;Signal;HPM_P1;HPM_P2
2021/03/25 00:01:09;;;;;;;;;70.00;52.00;;;;;12.70;42.81;99330.00;6204672;28;126717;-62
2021/03/25 00:04:11;;;;;;;;;66.50;51.00;;;;;12.71;42.57;99335.16;6206166;28;126806;-63
2021/03/25 00:07:13;;;;;;;;;66.00;51.00;;;;;12.71;42.60;99331.63;6205307;28;124615;-63
2021/03/25 00:10:21;;;;;;;;;67.00;50.00;;;;;12.45;42.51;99293.03;6205921;28;127603;-63
2021/03/25 00:13:23;;;;;;;;;67.20;51.20;;;;;12.73;42.59;99329.56;6220963;28;126252;-63
2021/03/25 00:16:25;;;;;;;;;64.60;50.60;;;;;12.70;42.58;99322.72;6207789;28;125151;-62
2021/03/25 00:19:27;;;;;;;;;64.00;49.40;;;;;12.74;42.44;99321.22;6209122;28;127452;-63
2021/03/25 00:22:29;;;;;;;;;67.00;51.00;;;;;12.77;42.47;99318.03;6207924;28;126255;-62
2021/03/25 00:25:33;;;;;;;;;66.80;51.00;;;;;12.46;42.55;99274.94;6209260;28;127199;-63
2021/03/25 00:28:35;;;;;;;;;65.75;51.25;;;;;12.57;42.46;99290.38;6208123;28;125925;-63
2021/03/25 00:31:37;;;;;;;;;67.20;50.40;;;;;12.68;42.76;99319.41;6241096;27;126581;-62
2021/03/25 00:34:39;;;;;;;;;66.80;49.40;;;;;12.65;42.50;99319.03;6224271;28;126277;-63
2021/03/25 00:37:40;;;;;;;;;69.00;52.00;;;;;12.60;42.78;99319.72;6209639;28;125393;-63
2021/03/25 00:40:45;;;;;;;;;68.00;50.00;;;;;12.59;42.74;99307.22;6224946;28;124731;-62
2021/03/25 00:43:47;;;;;;;;;63.00;49.00;;;;;12.59;42.65;99307.22;6209824;28;125412;-62
2021/03/25 00:46:49;;;;;;;;;64.00;49.20;;;;;12.41;42.87;99289.09;6207491;28;126501;-63
2021/03/25 00:49:50;;;;;;;;;67.00;51.00;;;;;12.57;42.89;99310.16;6223111;28;126714;-63
2021/03/25 00:52:52;;;;;;;;;66.75;50.75;;;;;12.43;43.00;99297.81;6208594;28;125358;-63
2021/03/25 00:55:54;;;;;;;;;64.60;49.60;;;;;12.49;43.14;99305.03;6210003;28;127104;-62
2021/03/25 00:58:56;;;;;;;;;67.00;51.00;;;;;12.34;42.96;99274.00;6208917;28;126322;-62
2021/03/25 01:01:57;;;;;;;;;63.50;50.00;;;;;12.56;42.87;99307.66;6207814;28;125178;-63
2021/03/25 01:04:59;;;;;;;;;67.00;51.25;;;;;12.58;42.95;99303.69;6223772;28;125249;-62
2021/03/25 01:08:02;;;;;;;;;65.75;50.00;;;;;12.51;42.96;99278.59;6222609;28;124195;-62
2021/03/25 01:11:13;;;;;;;;;65.75;50.25;;;;;12.69;42.85;99295.88;6223586;28;126649;-63
2021/03/25 01:14:20;;;;;;;;;64.00;50.00;;;;;12.64;43.10;99301.16;6207045;28;125728;-63
2021/03/25 01:17:21;;;;;;;;;65.60;50.60;;;;;12.57;42.98;99295.78;6224058;28;126305;-63
2021/03/25 01:20:43;;;;;;;;;67.00;51.00;;;;;12.57;42.99;99299.31;6223841;28;126662;-63
2021/03/25 01:23:49;;;;;;;;;63.20;49.00;;;;;12.37;43.17;99254.63;6207135;28;126145;-63
2021/03/25 01:26:52;;;;;;;;;68.00;51.00;;;;;12.65;42.91;99300.09;6191803;28;124515;-63
2021/03/25 01:29:53;;;;;;;;;68.00;52.60;;;;;12.39;43.23;99247.94;6207527;28;126442;-63
2021/03/25 01:32:58;;;;;;;;;66.80;51.00;;;;;12.55;42.94;99266.28;6191197;28;127051;-63
2021/03/25 01:36:01;;;;;;;;;67.75;52.25;;;;;12.53;43.15;99262.97;6174639;28;123490;-63
2021/03/25 01:39:03;;;;;;;;;67.20;52.00;;;;;12.71;43.08;99280.22;6207869;28;125355;-62
2021/03/25 01:42:23;;;;;;;;;65.60;51.00;;;;;12.70;42.88;99281.31;6207222;28;126473;-63
2021/03/25 01:45:35;;;;;;;;;67.00;50.00;;;;;12.78;42.87;99281.81;6207794;28;124813;-63
2021/03/25 01:48:39;;;;;;;;;70.75;53.75;;;;;12.81;42.87;99280.53;6190944;28;124407;-63
2021/03/25 01:52:11;;;;;;;;;70.25;52.25;;;;;12.83;42.62;99279.28;6206712;28;126050;-62
2021/03/25 01:55:21;;;;;;;;;67.67;52.00;;;;;12.85;42.68;99270.94;6207448;28;126411;-62
2021/03/25 01:58:38;;;;;;;;;68.80;51.80;;;;;12.87;42.58;99268.81;6207191;28;127006;-62
2021/03/25 02:01:54;;;;;;;;;71.50;53.00;;;;;12.89;42.67;99264.84;6206745;28;124717;-63
2021/03/25 02:05:03;;;;;;;;;66.75;51.75;;;;;12.84;42.55;99267.41;6206024;28;124848;-62
2021/03/25 02:08:40;;;;;;;;;68.00;52.00;;;;;12.84;42.58;99263.88;6223431;28;126568;-62
2021/03/25 02:12:12;;;;;;;;;68.80;53.00;;;;;12.82;42.70;99264.09;6209033;28;126343;-63
2021/03/25 02:15:47;;;;;;;;;69.33;53.00;;;;;12.82;42.90;99263.25;6222966;28;123599;-63
2021/03/25 02:19:02;;;;;;;;;70.40;52.00;;;;;12.84;43.11;99263.88;6205774;28;124846;-62
2021/03/25 02:22:31;;;;;;;;;70.40;54.00;;;;;12.80;42.85;99257.25;6206786;28;126066;-62
2021/03/25 02:26:08;;;;;;;;;72.20;55.60;;;;;12.71;42.75;99256.72;6191992;28;124981;-62
2021/03/25 02:29:42;;;;;;;;;71.00;52.00;;;;;12.84;42.84;99256.56;6208543;28;127671;-62
2021/03/25 02:32:59;;;;;;;;;70.75;55.00;;;;;12.69;42.85;99236.38;6222946;28;126563;-62
2021/03/25 02:36:12;;;;;;;;;73.40;57.40;;;;;12.77;42.74;99260.41;6191387;28;125987;-62
2021/03/25 02:39:21;;;;;;;;;72.00;55.00;;;;;12.79;42.80;99253.72;6190644;28;125999;-63
2021/03/25 02:43:00;;;;;;;;;72.00;56.67;;;;;12.57;43.04;99220.88;6204263;28;127178;-62
2021/03/25 02:46:27;;;;;;;;;71.00;53.00;;;;;12.72;42.91;99252.13;6205405;28;126456;-61
2021/03/25 02:49:35;;;;;;;;;72.00;54.40;;;;;12.63;42.90;99229.16;6181904;28;126243;-63
2021/03/25 02:52:45;;;;;;;;;71.00;55.20;;;;;12.66;42.86;99234.94;6205143;28;126011;-62
2021/03/25 02:55:52;;;;;;;;;71.00;54.00;;;;;12.79;43.00;99253.72;6206155;28;123868;-63
2021/03/25 02:59:09;;;;;;;;;72.00;57.00;;;;;12.77;42.95;99255.00;6206511;28;125957;-63
2021/03/25 03:02:18;;;;;;;;;71.40;54.40;;;;;12.59;43.41;99226.91;6206046;28;126373;-63
2021/03/25 03:05:24;;;;;;;;;73.20;58.20;;;;;12.65;42.98;99235.19;6205810;28;125705;-63
2021/03/25 03:08:31;;;;;;;;;71.00;53.00;;;;;12.64;42.99;99241.63;6188409;28;126936;-62
2021/03/25 03:11:38;;;;;;;;;72.40;58.00;;;;;12.65;43.25;99251.41;6204074;28;124191;-61
2021/03/25 03:15:04;;;;;;;;;72.20;54.80;;;;;12.45;43.08;99238.94;6221134;28;126066;-63
2021/03/25 03:18:12;;;;;;;;;73.00;57.00;;;;;12.54;43.20;99255.69;6220509;28;125007;-63
2021/03/25 03:21:23;;;;;;;;;72.00;56.00;;;;;12.55;43.51;99268.16;6211599;28;125899;-63
2021/03/25 03:24:50;;;;;;;;;69.00;52.50;;;;;12.53;43.44;99248.63;6207972;28;127280;-62
2021/03/25 03:28:26;;;;;;;;;72.00;54.33;;;;;12.54;43.53;99252.97;6181241;28;126066;-61
2021/03/25 03:31:36;;;;;;;;;70.80;59.00;;;;;12.56;43.41;99248.97;6189527;28;125032;-61
2021/03/25 03:34:47;;;;;;;;;70.75;55.00;;;;;12.51;43.51;99253.44;6196404;28;124834;-61
2021/03/25 03:37:55;;;;;;;;;72.00;54.40;;;;;12.50;43.53;99252.63;6216106;28;125983;-62
2021/03/25 03:40:58;;;;;;;;;72.00;57.25;;;;;12.48;43.69;99253.88;6204559;28;126120;-62
2021/03/25 03:44:04;;;;;;;;;75.00;59.00;;;;;12.50;43.64;99243.66;6188878;28;123428;-63
2021/03/25 03:47:09;;;;;;;;;75.80;61.20;;;;;12.39;43.64;99228.19;6205321;28;127014;-61
2021/03/25 03:50:21;;;;;;;;;74.40;59.80;;;;;12.53;43.51;99248.63;6205013;28;126054;-62
2021/03/25 03:53:25;;;;;;;;;77.25;63.00;;;;;12.54;43.26;99252.97;6211998;28;126236;-62
2021/03/25 03:56:48;;;;;;;;;75.00;61.00;;;;;12.55;43.48;99254.63;6208030;28;125712;-62
2021/03/25 04:00:00;;;;;;;;;75.20;60.00;;;;;12.55;43.49;99252.75;6209485;28;124730;-62
2021/03/25 04:03:20;;;;;;;;;76.00;59.75;;;;;12.55;43.43;99250.06;6211112;28;126213;-62
2021/03/25 04:06:50;;;;;;;;;77.00;63.00;;;;;12.31;43.54;99214.97;6210874;28;127169;-62
2021/03/25 04:10:21;;;;;;;;;79.00;64.25;;;;;12.40;43.55;99229.84;6210011;28;123360;-62
2021/03/25 04:13:45;;;;;;;;;78.20;62.00;;;;;12.53;43.53;99245.91;6226784;28;126989;-62
2021/03/25 04:16:49;;;;;;;;;76.00;62.75;;;;;12.44;43.56;99234.56;6225518;28;126734;-61
2021/03/25 04:19:56;;;;;;;;;74.25;60.75;;;;;12.56;43.51;99240.88;6208973;28;128985;-61
2021/03/25 04:23:15;;;;;;;;;78.00;63.75;;;;;12.43;43.53;99218.56;6208618;28;126201;-63
2021/03/25 04:26:40;;;;;;;;;77.00;61.40;;;;;12.47;43.44;99234.13;6210183;28;124474;-62
2021/03/25 04:29:51;;;;;;;;;75.00;61.00;;;;;12.33;43.34;99210.16;6209195;28;127179;-63
2021/03/25 04:32:52;;;;;;;;;79.40;63.60;;;;;12.51;43.61;99234.50;6210388;28;125986;-62
2021/03/25 04:35:56;;;;;;;;;74.00;61.00;;;;;12.63;43.31;99254.31;6208966;28;126218;-63
2021/03/25 04:39:00;;;;;;;;;75.00;61.00;;;;;12.68;43.31;99251.78;6224409;28;124965;-63
2021/03/25 04:42:02;;;;;;;;;74.20;60.60;;;;;12.68;43.33;99254.47;6207919;28;125813;-63
2021/03/25 04:45:15;;;;;;;;;72.40;55.40;;;;;12.70;43.25;99256.97;6208740;28;127470;-63
2021/03/25 04:48:19;;;;;;;;;73.25;56.50;;;;;12.54;43.17;99239.47;6206492;28;126014;-61
2021/03/25 04:51:25;;;;;;;;;70.00;53.40;;;;;12.53;43.20;99240.50;6206301;28;126225;-61
2021/03/25 04:54:38;;;;;;;;;73.00;58.00;;;;;12.72;43.16;99262.97;6210162;28;126011;-61
2021/03/25 04:57:46;;;;;;;;;75.00;56.00;;;;;12.71;43.05;99266.72;6208840;28;126533;-61
2021/03/25 05:00:48;;;;;;;;;75.40;58.40;;;;;12.44;43.19;99220.22;6207493;28;126023;-61
2021/03/25 05:03:55;;;;;;;;;73.25;57.25;;;;;12.74;43.04;99261.69;6207307;28;127194;-61
2021/03/25 05:06:59;;;;;;;;;70.00;55.00;;;;;12.79;43.09;99271.84;6223636;28;126662;-61
2021/03/25 05:10:01;;;;;;;;;71.00;55.00;;;;;12.81;42.82;99270.53;6220522;27;126303;-62
2021/03/25 05:13:03;;;;;;;;;69.60;53.00;;;;;12.82;42.79;99271.38;6186576;28;127164;-63
2021/03/25 05:16:25;;;;;;;;;72.75;54.75;;;;;12.76;43.03;99261.44;6223945;28;125734;-60
2021/03/25 05:19:30;;;;;;;;;72.00;55.00;;;;;12.84;43.05;99272.81;6207704;28;125555;-63
2021/03/25 05:23:00;;;;;;;;;70.00;53.00;;;;;12.76;42.81;99259.56;6208918;28;124879;-61
2021/03/25 05:26:13;;;;;;;;;71.20;55.00;;;;;12.94;43.00;99274.97;6209181;28;126524;-61
2021/03/25 05:29:16;;;;;;;;;69.00;53.25;;;;;12.95;42.65;99273.94;6225250;28;127512;-61
2021/03/25 05:32:22;;;;;;;;;70.00;53.00;;;;;12.86;42.69;99256.31;6209395;28;126529;-60
2021/03/25 05:35:29;;;;;;;;;69.25;52.00;;;;;13.00;42.39;99277.59;6207044;28;126122;-61
2021/03/25 05:38:32;;;;;;;;;62.80;50.00;;;;;12.99;42.44;99281.38;6209040;28;125852;-61
2021/03/25 05:41:44;;;;;;;;;64.60;50.00;;;;;13.02;42.10;99286.31;6207211;28;124317;-61
2021/03/25 05:45:17;;;;;;;;;60.75;46.00;;;;;13.01;42.20;99279.25;6207942;28;126083;-61
2021/03/25 05:48:56;;;;;;;;;64.60;48.40;;;;;12.98;42.17;99279.72;6207710;28;125967;-63
2021/03/25 05:52:26;;;;;;;;;64.00;50.00;;;;;13.07;42.07;99279.38;6207304;28;126305;-60
2021/03/25 05:55:50;;;;;;;;;67.20;51.00;;;;;13.05;42.26;99281.50;6187787;28;125853;-61
2021/03/25 05:58:56;;;;;;;;;61.67;48.00;;;;;13.08;42.23;99290.00;6207778;28;125947;-61
2021/03/25 06:02:04;;;;;;;;;68.00;50.00;;;;;12.95;41.99;99263.09;6207098;28;128380;-61
2021/03/25 06:05:10;;;;;;;;;67.25;50.00;;;;;13.11;42.04;99289.56;6208633;28;127699;-61
2021/03/25 06:08:30;;;;;;;;;64.60;48.20;;;;;13.18;41.92;99290.31;6206125;28;125046;-63
2021/03/25 06:11:37;;;;;;;;;64.50;49.00;;;;;13.16;41.94;99292.41;6213701;28;124815;-63
2021/03/25 06:14:47;;;;;;;;;65.00;48.00;;;;;13.21;41.83;99289.84;6208011;28;124675;-61
2021/03/25 06:18:18;;;;;;;;;62.00;48.00;;;;;13.06;41.67;99275.84;6204998;28;126240;-61
2021/03/25 06:21:44;;;;;;;;;61.60;47.80;;;;;13.25;41.68;99292.91;6205165;28;124618;-61
2021/03/25 06:25:07;;;;;;;;;62.40;48.00;;;;;13.24;41.71;99291.28;6206087;28;128701;-62
2021/03/25 06:28:20;;;;;;;;;63.25;47.75;;;;;13.27;41.69;99298.94;6201985;28;125956;-61
2021/03/25 06:31:33;;;;;;;;;62.40;47.60;;;;;13.20;41.49;99293.59;6192510;28;125883;-61
2021/03/25 06:34:46;;;;;;;;;63.00;48.00;;;;;13.31;41.55;99302.84;6203275;28;124313;-64
2021/03/25 06:37:50;;;;;;;;;59.00;47.00;;;;;13.39;41.28;99305.22;6205520;28;126564;-62
2021/03/25 06:41:02;;;;;;;;;64.25;47.00;;;;;13.47;41.10;99307.63;6206590;28;125962;-61
2021/03/25 06:44:32;;;;;;;;;62.00;48.00;;;;;13.31;41.23;99283.88;6206926;28;126131;-62
2021/03/25 06:47:44;;;;;;;;;58.00;46.60;;;;;13.57;41.18;99312.47;6200028;28;126015;-62
2021/03/25 06:50:51;;;;;;;;;62.00;47.80;;;;;13.62;40.70;99309.91;6206964;28;125961;-63
2021/03/25 06:54:15;;;;;;;;;60.50;46.00;;;;;13.52;40.51;99288.78;6228746;28;126514;-63
2021/03/25 06:57:21;;;;;;;;;62.00;46.00;;;;;13.72;40.58;99318.31;6221528;28;124917;-63
2021/03/25 07:00:25;;;;;;;;;61.00;46.00;;;;;13.70;40.49;99313.09;6207991;28;124710;-63
2021/03/25 07:03:28;;;;;;;;;62.40;48.00;;;;;13.60;40.56;99285.75;6194730;28;127290;-63
2021/03/25 07:06:34;;;;;;;;;65.00;46.80;;;;;13.84;40.76;99319.97;6223472;28;124728;-62
2021/03/25 07:09:38;;;;;;;;;61.00;47.00;;;;;13.92;39.69;99313.41;6190859;28;127162;-62
2021/03/25 07:12:45;;;;;;;;;60.80;46.00;;;;;13.94;40.10;99319.41;6191327;28;125922;-63
2021/03/25 07:16:08;;;;;;;;;58.60;44.60;;;;;14.03;39.93;99317.16;6183288;28;126127;-63
2021/03/25 07:19:14;;;;;;;;;57.20;44.20;;;;;14.07;39.56;99321.91;6192418;28;126917;-63
2021/03/25 07:22:21;;;;;;;;;56.80;45.00;;;;;14.10;39.34;99328.75;6207764;28;124578;-62
2021/03/25 07:25:24;;;;;;;;;55.50;44.00;;;;;14.01;39.19;99300.31;6185343;28;125571;-61
2021/03/25 07:28:25;;;;;;;;;58.80;44.00;;;;;13.95;39.24;99280.41;6202654;28;126292;-62
2021/03/25 07:31:31;;;;;;;;;56.50;44.00;;;;;14.25;39.53;99331.84;6187140;28;126888;-62
2021/03/25 07:34:40;;;;;;;;;57.00;44.75;;;;;14.32;39.05;99325.22;6187057;28;126185;-61
2021/03/25 07:37:43;;;;;;;;;58.40;44.00;;;;;14.35;38.63;99331.25;6187365;28;124035;-61
2021/03/25 07:40:45;;;;;;;;;56.50;44.00;;;;;14.40;39.18;99336.81;6186690;28;126383;-61
2021/03/25 07:43:59;;;;;;;;;58.40;45.40;;;;;14.40;38.77;99332.22;6186867;28;126954;-62
2021/03/25 07:47:05;;;;;;;;;55.00;44.00;;;;;14.30;38.85;99304.84;6202210;28;124815;-63
2021/03/25 07:50:30;;;;;;;;;55.00;44.00;;;;;14.47;38.59;99332.09;6191298;28;126666;-63
2021/03/25 07:53:31;;;;;;;;;55.00;44.00;;;;;14.50;38.11;99353.34;6207314;28;125509;-62
2021/03/25 07:56:33;;;;;;;;;56.00;42.00;;;;;14.32;38.37;99300.81;6208636;28;124727;-61
2021/03/25 07:59:44;;;;;;;;;56.40;42.60;;;;;14.58;38.58;99339.41;6185055;28;126577;-61
2021/03/25 08:03:17;;;;;;;;;57.60;44.00;;;;;14.61;38.26;99337.03;6200857;28;124187;-63
2021/03/25 08:06:38;;;;;;;;;54.60;44.00;;;;;14.51;38.29;99330.59;6185751;28;125932;-63
2021/03/25 08:09:52;;;;;;;;;53.50;42.00;;;;;14.63;37.83;99342.25;6196144;28;124633;-61
2021/03/25 08:13:14;;;;;;;;;55.00;43.00;;;;;14.66;37.73;99333.66;6208605;28;124784;-62
2021/03/25 08:16:16;;;;;;;;;52.40;42.00;;;;;14.74;37.79;99325.13;6209322;28;126780;-62
2021/03/25 08:19:52;;;;;;;;;56.00;44.20;;;;;14.82;37.52;99324.75;6210811;28;125167;-62
2021/03/25 08:23:02;;;;;;;;;54.60;42.00;;;;;14.82;37.01;99327.47;6194139;28;127370;-62
2021/03/25 08:26:21;;;;;;;;;55.00;42.00;;;;;14.74;36.93;99331.38;6192561;28;126351;-61
2021/03/25 08:29:37;;;;;;;;;52.00;41.00;;;;;14.82;36.14;99322.03;6202810;28;126757;-61
2021/03/25 08:32:54;;;;;;;;;55.00;40.75;;;;;14.92;36.12;99324.16;6194166;28;124930;-62
2021/03/25 08:36:27;;;;;;;;;52.40;42.00;;;;;14.93;35.49;99323.91;6190120;28;127083;-63
2021/03/25 08:39:51;;;;;;;;;52.50;40.00;;;;;15.06;34.10;99326.38;6188737;28;123908;-62
2021/03/25 08:42:56;;;;;;;;;53.40;41.00;;;;;15.03;34.74;99317.88;6199575;28;126850;-62
2021/03/25 08:46:07;;;;;;;;;52.75;40.25;;;;;15.15;34.23;99310.50;6190194;28;124806;-62
2021/03/25 08:49:18;;;;;;;;;55.40;41.00;;;;;15.40;33.73;99323.78;6193217;28;126861;-63
2021/03/25 08:52:23;;;;;;;;;50.75;40.50;;;;;15.48;33.70;99332.38;6214845;28;125932;-63
2021/03/25 08:55:38;;;;;;;;;48.50;38.00;;;;;15.39;33.12;99324.88;6198927;28;127224;-62
2021/03/25 08:58:42;;;;;;;;;51.00;38.60;;;;;15.47;33.65;99322.56;6192804;28;126304;-62
2021/03/25 09:01:51;;;;;;;;;51.50;39.50;;;;;15.68;34.14;99325.72;6199917;28;126016;-61
2021/03/25 09:05:08;;;;;;;;;49.60;39.60;;;;;15.77;33.44;99333.22;6184233;28;126989;-61
2021/03/25 09:08:15;;;;;;;;;49.40;38.80;;;;;15.82;33.36;99324.34;6191627;28;127415;-62
2021/03/25 09:11:18;;;;;;;;;49.75;37.75;;;;;15.87;33.39;99321.69;6194707;28;124951;-62
2021/03/25 09:14:22;;;;;;;;;50.00;39.00;;;;;15.86;33.07;99318.16;6197240;28;124581;-62
2021/03/25 09:17:54;;;;;;;;;48.00;36.40;;;;;15.98;32.85;99315.34;6206524;28;124928;-62
2021/03/25 09:21:08;;;;;;;;;43.60;35.40;;;;;16.05;32.68;99321.47;6189122;28;126347;-62
2021/03/25 09:24:11;;;;;;;;;45.60;36.60;;;;;15.94;32.39;99300.59;6196566;28;127311;-62
2021/03/25 09:27:13;;;;;;;;;45.60;36.60;;;;;15.53;32.41;99231.97;6195309;28;127049;-63
2021/03/25 09:30:29;;;;;;;;;45.20;36.00;;;;;16.22;32.68;99314.16;6191074;28;127052;-63
2021/03/25 09:33:40;;;;;;;;;48.00;38.50;;;;;16.44;32.10;99300.59;6206336;28;124869;-62
2021/03/25 09:36:45;;;;;;;;;44.00;35.00;;;;;16.70;31.62;99310.81;6190842;28;126141;-61
2021/03/25 09:40:04;;;;;;;;;43.00;35.00;;;;;16.84;30.52;99312.09;6192834;28;124788;-61
2021/03/25 09:43:35;;;;;;;;;49.00;36.00;;;;;17.09;31.00;99308.06;6194595;28;126166;-61
2021/03/25 09:46:58;;;;;;;;;43.40;35.80;;;;;17.25;31.14;99309.88;6200231;28;124658;-61
2021/03/25 09:50:02;;;;;;;;;41.00;34.00;;;;;17.43;29.89;99306.00;6190403;28;124958;-61
2021/03/25 09:53:16;;;;;;;;;46.00;37.00;;;;;17.55;29.41;99310.22;6196455;28;127595;-62
2021/03/25 09:56:24;;;;;;;;;47.00;35.80;;;;;17.66;29.05;99312.00;6197616;28;124596;-62
2021/03/25 10:00:02;;;;;;;;;41.00;34.00;;;;;17.57;28.82;99285.41;6200135;28;126733;-61
2021/03/25 10:03:08;;;;;;;;;42.00;34.40;;;;;17.71;27.69;99313.94;6211838;28;125858;-62
2021/03/25 10:06:49;;;;;;;;;43.50;35.25;;;;;17.72;27.78;99307.41;6199120;28;126461;-60
2021/03/25 10:09:57;;;;;;;;;44.60;34.00;;;;;17.82;28.09;99306.69;6194509;28;126923;-60
2021/03/25 10:13:02;;;;;;;;;43.20;35.00;;;;;17.93;28.07;99302.97;6201232;28;126855;-60
2021/03/25 10:16:06;;;;;;;;;45.00;35.00;;;;;17.96;27.84;99306.00;6192784;28;126797;-60
2021/03/25 10:19:11;;;;;;;;;47.00;37.60;;;;;17.93;27.71;99306.53;6197459;28;126011;-60
2021/03/25 10:22:21;;;;;;;;;52.40;37.00;;;;;17.73;27.96;99299.00;6186660;28;127079;-61
2021/03/25 10:25:28;;;;;;;;;45.20;35.00;;;;;17.83;28.57;99305.63;6197070;28;125480;-61
2021/03/25 10:28:40;;;;;;;;;41.80;35.20;;;;;17.65;28.14;99279.53;6198723;28;124487;-63
2021/03/25 10:31:57;;;;;;;;;45.67;35.00;;;;;17.89;28.03;99304.56;6203769;28;125036;-62
2021/03/25 10:35:00;;;;;;;;;44.40;35.80;;;;;17.98;27.21;99303.03;6195715;28;124563;-62
2021/03/25 10:38:10;;;;;;;;;42.00;34.00;;;;;17.87;27.33;99280.28;6193025;28;126436;-63
2021/03/25 10:41:25;;;;;;;;;42.00;33.75;;;;;17.89;27.53;99285.47;6193866;28;124874;-62
2021/03/25 10:44:32;;;;;;;;;44.60;33.00;;;;;17.98;27.04;99294.84;6188360;28;125069;-62
2021/03/25 10:47:34;;;;;;;;;42.50;34.00;;;;;17.99;26.92;99299.19;6191434;28;126113;-62
2021/03/25 10:50:48;;;;;;;;;45.00;34.40;;;;;17.91;26.77;99302.41;6207185;28;126211;-62
2021/03/25 10:53:53;;;;;;;;;45.00;34.00;;;;;18.00;27.11;99296.22;6202842;28;124951;-63
2021/03/25 10:57:17;;;;;;;;;42.20;34.00;;;;;18.08;27.17;99287.53;6191495;28;126745;-63
2021/03/25 11:00:35;;;;;;;;;48.00;36.80;;;;;18.13;27.04;99287.59;6203169;28;126753;-61
2021/03/25 11:03:40;;;;;;;;;45.00;36.00;;;;;18.17;27.34;99280.56;6210710;28;125087;-62
2021/03/25 11:06:42;;;;;;;;;43.00;33.80;;;;;18.32;27.60;99279.00;6198218;28;127268;-62
2021/03/25 11:09:58;;;;;;;;;47.50;36.00;;;;;18.47;27.17;99288.09;6192214;28;127448;-62
2021/03/25 11:13:15;;;;;;;;;44.80;35.80;;;;;18.61;27.04;99274.88;6186042;28;97168;-63
2021/03/25 11:16:20;;;;;;;;;45.40;35.00;;;;;18.78;27.45;99269.19;6188369;28;127030;-62
2021/03/25 11:19:24;;;;;;;;;43.25;35.00;;;;;18.80;26.39;99259.66;6193014;28;125751;-62
2021/03/25 11:22:35;;;;;;;;;44.00;34.20;;;;;18.97;26.18;99267.66;6195802;28;126509;-62
2021/03/25 11:25:36;;;;;;;;;45.00;36.00;;;;;19.05;26.13;99272.63;6198616;28;126161;-62
2021/03/25 11:28:38;;;;;;;;;45.80;35.00;;;;;18.95;25.80;99239.78;6182623;28;125397;-62
2021/03/25 11:31:43;;;;;;;;;46.40;36.00;;;;;18.92;25.75;99262.16;6214464;28;124023;-61
2021/03/25 11:35:24;;;;;;;;;44.60;35.40;;;;;18.73;25.88;99261.81;6191787;28;125349;-63
2021/03/25 11:38:26;;;;;;;;;49.00;38.00;;;;;18.65;25.88;99254.13;6196108;28;126763;-62
2021/03/25 11:41:34;;;;;;;;;44.60;35.00;;;;;18.77;25.97;99257.44;6188654;28;127019;-61
2021/03/25 11:44:43;;;;;;;;;44.60;35.00;;;;;18.91;26.05;99255.88;6206840;28;125954;-62
2021/03/25 11:47:46;;;;;;;;;46.40;36.00;;;;;18.87;25.34;99257.50;6189363;28;123606;-62
2021/03/25 11:50:48;;;;;;;;;44.40;36.00;;;;;18.90;25.65;99246.06;6195489;28;125028;-61
2021/03/25 11:53:53;;;;;;;;;46.00;36.00;;;;;18.91;26.03;99258.59;6196775;28;126579;-61
2021/03/25 11:56:58;;;;;;;;;40.25;33.50;;;;;18.98;25.52;99248.25;6189865;28;126812;-62
2021/03/25 12:00:06;;;;;;;;;43.75;35.00;;;;;19.06;25.71;99254.31;6196296;28;124228;-62
2021/03/25 12:03:24;;;;;;;;;47.00;38.00;;;;;18.83;25.87;99218.16;6197950;28;125776;-63
2021/03/25 12:06:33;;;;;;;;;45.75;37.75;;;;;19.05;25.66;99248.03;6188713;28;125805;-63
2021/03/25 12:09:35;;;;;;;;;43.60;35.00;;;;;18.76;25.38;99216.75;6186976;28;124974;-63
2021/03/25 12:12:37;;;;;;;;;43.60;35.60;;;;;18.72;25.82;99246.50;6201968;28;124410;-63
2021/03/25 12:15:39;;;;;;;;;46.80;36.00;;;;;18.72;25.82;99238.31;6189034;28;126435;-62
2021/03/25 12:18:46;;;;;;;;;45.40;35.00;;;;;18.64;26.51;99230.63;6200940;28;125988;-63
2021/03/25 12:21:48;;;;;;;;;49.40;38.00;;;;;18.35;26.46;99185.66;6201009;28;124647;-63
2021/03/25 12:24:50;;;;;;;;;49.00;38.00;;;;;18.55;26.24;99226.75;6197917;28;126417;-63
2021/03/25 12:27:51;;;;;;;;;47.40;37.00;;;;;18.66;26.40;99227.63;6192273;28;126222;-63
2021/03/25 12:30:53;;;;;;;;;48.60;37.20;;;;;18.87;26.69;99226.63;6194283;28;125516;-62
2021/03/25 12:33:55;;;;;;;;;48.75;36.50;;;;;19.11;26.21;99229.72;6196342;28;125244;-63
2021/03/25 12:36:56;;;;;;;;;49.00;36.20;;;;;19.29;26.14;99237.44;6190869;28;125910;-63
2021/03/25 12:40:07;;;;;;;;;49.00;39.00;;;;;19.33;25.53;99224.84;6198310;28;125983;-63
2021/03/25 12:43:13;;;;;;;;;52.50;40.00;;;;;19.45;25.30;99223.53;6184461;28;125421;-62
2021/03/25 12:46:15;;;;;;;;;49.00;37.00;;;;;19.41;25.80;99227.88;6200521;28;126144;-63
2021/03/25 12:49:17;;;;;;;;;45.50;37.50;;;;;19.55;24.93;99219.97;6210313;28;127823;-63
2021/03/25 12:52:18;;;;;;;;;52.00;39.25;;;;;20.03;24.86;99218.66;6189651;28;126588;-65
2021/03/25 12:55:22;;;;;;;;;49.00;39.00;;;;;20.24;24.38;99203.00;6206566;28;125371;-62
2021/03/25 12:58:36;;;;;;;;;50.00;39.00;;;;;20.83;24.61;99219.56;6203130;28;124806;-63
2021/03/25 13:01:37;;;;;;;;;46.00;36.00;;;;;21.03;23.45;99177.53;6202232;28;124541;-62
2021/03/25 13:04:40;;;;;;;;;52.00;40.00;;;;;21.45;22.64;99199.75;6193581;28;126571;-62
2021/03/25 13:07:42;;;;;;;;;47.60;38.00;;;;;21.82;22.92;99201.97;6207676;28;127341;-61
2021/03/25 13:10:44;;;;;;;;;47.00;37.60;;;;;21.84;22.95;99207.16;6201746;28;126440;-62
2021/03/25 13:13:45;;;;;;;;;51.60;40.20;;;;;21.97;22.88;99173.59;6194944;28;128069;-62
2021/03/25 13:16:47;;;;;;;;;49.75;39.00;;;;;22.32;22.41;99206.19;6191917;28;127536;-61
2021/03/25 13:19:48;;;;;;;;;47.40;39.00;;;;;22.40;22.26;99201.97;6188601;28;125426;-61
2021/03/25 13:22:51;;;;;;;;;50.00;39.00;;;;;22.46;22.08;99193.41;6196665;28;127517;-61
2021/03/25 13:25:53;;;;;;;;;47.50;36.50;;;;;22.52;22.01;99169.44;6205497;28;126385;-61
2021/03/25 13:28:54;;;;;;;;;50.20;40.20;;;;;22.74;21.73;99188.97;6225371;27;126467;-61
2021/03/25 13:31:56;;;;;;;;;47.00;38.60;;;;;22.52;21.73;99187.84;6196411;28;127616;-63
2021/03/25 13:34:58;;;;;;;;;47.20;37.00;;;;;21.91;21.59;99160.97;6185225;28;125332;-63
2021/03/25 13:37:59;;;;;;;;;50.00;37.67;;;;;21.79;21.96;99186.09;6199634;28;125596;-63
2021/03/25 13:41:01;;;;;;;;;50.00;39.00;;;;;21.63;23.14;99157.13;6205596;28;128719;-64
2021/03/25 13:44:07;;;;;;;;;44.60;36.20;;;;;21.99;22.36;99176.88;6199601;28;124897;-62
2021/03/25 13:47:08;;;;;;;;;49.00;38.50;;;;;21.95;22.21;99182.09;6187739;28;125651;-63
2021/03/25 13:50:14;;;;;;;;;51.60;39.00;;;;;21.64;22.32;99171.66;6196363;28;126781;-61
2021/03/25 13:53:16;;;;;;;;;47.20;37.80;;;;;21.65;23.07;99165.06;6187773;28;124672;-62
2021/03/25 13:56:17;;;;;;;;;48.00;37.20;;;;;21.65;22.66;99154.88;6209979;28;125558;-62
2021/03/25 13:59:20;;;;;;;;;50.00;38.00;;;;;22.00;22.67;99170.25;6200447;28;125026;-61
2021/03/25 14:02:21;;;;;;;;;48.75;38.00;;;;;21.87;22.10;99173.66;6190763;28;128255;-63
2021/03/25 14:05:25;;;;;;;;;51.40;39.00;;;;;21.61;22.06;99149.16;6188868;28;127139;-62
2021/03/25 14:08:27;;;;;;;;;48.40;38.00;;;;;21.78;23.05;99140.53;6197966;28;126006;-62
2021/03/25 14:11:28;;;;;;;;;49.00;38.00;;;;;22.06;22.69;99160.03;6192282;28;126455;-61
2021/03/25 14:14:30;;;;;;;;;51.00;39.00;;;;;22.20;22.39;99145.34;6231633;27;125709;-60
2021/03/25 14:17:34;;;;;;;;;49.00;38.00;;;;;22.35;21.83;99150.66;6197139;28;125348;-63
2021/03/25 14:20:36;;;;;;;;;47.00;38.25;;;;;22.42;22.09;99148.41;6204166;28;125916;-63
2021/03/25 14:23:38;;;;;;;;;46.00;36.40;;;;;22.25;21.91;99133.47;6194590;28;125291;-63